Terminal Aerodrome Forecast
Issued by NWS

Home | Current Version | Previous Version | Text Only | Print | Product List | Glossary On
Versions: 1 2 3 4 5 6 7 8 9 10 11 12 13
000
FTUS42 KTBW 301121
TAFLAL
TAF
KLAL 301121Z 3012/0112 VRB03KT P6SM FEW015 SCT250
     FM301500 28008KT P6SM VCTS SCT035CB SCT100 BKN250
     FM010100 VRB03KT P6SM FEW030 SCT250=

USA.gov is the U.S. government's official web portal to all federal, state and local government web resources and services.